Time;durP1;ratioP1;P1;durP2;ratioP2;P2;SDS_P1;SDS_P2;PMS_P1;PMS_P2;Temp;Humidity;BMP_temperature;BMP_pressure;BME280_temperature;BME280_humidity;BME280_pressure;Samples;Min_cycle;Max_cycle;Signal;HPM_P1;HPM_P2
2023/12/21 00:01:43;;;;;;;1.45;1.00;;;;;;;5.31;77.52;97772.72;5082334;28;20335;-75
2023/12/21 00:04:10;;;;;;;1.70;1.00;;;;;;;5.26;77.42;97776.91;5112463;27;20293;-75
2023/12/21 00:06:36;;;;;;;1.10;0.90;;;;;;;5.26;78.12;97780.44;5080567;28;20247;-75
2023/12/21 00:09:06;;;;;;;1.00;0.90;;;;;;;5.14;79.08;97778.34;5079393;28;20287;-75
2023/12/21 00:11:32;;;;;;;0.98;0.90;;;;;;;5.05;79.59;97777.53;5114724;27;20200;-74
2023/12/21 00:14:00;;;;;;;1.55;0.93;;;;;;;5.02;80.68;97767.16;5081947;28;20235;-75
2023/12/21 00:16:27;;;;;;;1.35;1.08;;;;;;;5.02;80.29;97767.97;5082580;28;20241;-76
2023/12/21 00:18:55;;;;;;;1.98;1.02;;;;;;;5.07;80.08;97770.97;5088821;28;20216;-76
2023/12/21 00:21:22;;;;;;;1.45;1.02;;;;;;;5.01;79.77;97770.84;5108617;27;20688;-75
2023/12/21 00:23:49;;;;;;;1.00;0.95;;;;;;;5.04;80.15;97754.41;5079700;28;20236;-75
2023/12/21 00:26:15;;;;;;;1.27;0.90;;;;;;;5.11;80.22;97749.19;5082114;28;20209;-74
2023/12/21 00:28:42;;;;;;;0.85;0.73;;;;;;;5.01;80.18;97754.75;5097582;28;20212;-74
2023/12/21 00:31:08;;;;;;;1.00;0.90;;;;;;;5.09;80.39;97760.09;5082983;28;20298;-74
2023/12/21 00:33:37;;;;;;;0.93;0.80;;;;;;;5.05;80.54;97742.66;5082437;28;20295;-74
2023/12/21 00:36:05;;;;;;;1.40;0.90;;;;;;;5.04;80.53;97749.03;5078664;28;20669;-74
2023/12/21 00:38:32;;;;;;;0.90;0.70;;;;;;;5.11;80.06;97755.38;5081704;28;20266;-74
2023/12/21 00:41:00;;;;;;;0.80;0.80;;;;;;;5.08;80.33;97750.38;5082963;28;20203;-74
2023/12/21 00:43:27;;;;;;;0.75;0.70;;;;;;;5.11;79.64;97744.66;5083219;28;20251;-74
2023/12/21 00:45:53;;;;;;;0.77;0.60;;;;;;;5.16;79.84;97746.81;5081426;28;20232;-76
2023/12/21 00:48:20;;;;;;;0.90;0.80;;;;;;;5.20;79.81;97754.31;5081053;28;20292;-75
2023/12/21 00:50:46;;;;;;;0.90;0.70;;;;;;;5.21;79.96;97744.41;5081585;28;20298;-73
2023/12/21 00:53:17;;;;;;;0.70;0.60;;;;;;;5.18;79.98;97753.69;5079854;28;20670;-74
2023/12/21 00:55:44;;;;;;;0.77;0.50;;;;;;;5.25;79.75;97756.47;5080147;28;20303;-74
2023/12/21 00:58:11;;;;;;;1.58;0.80;;;;;;;5.24;80.01;97749.44;5113468;27;20580;-74
2023/12/21 01:00:40;;;;;;;0.63;0.60;;;;;;;5.25;79.31;97735.00;5079685;28;20710;-73
2023/12/21 01:03:06;;;;;;;1.02;0.60;;;;;;;5.15;80.44;97723.69;5081648;28;20256;-74
2023/12/21 01:05:33;;;;;;;0.77;0.60;;;;;;;5.27;80.23;97735.66;5081724;28;20204;-74
2023/12/21 01:08:02;;;;;;;0.63;0.63;;;;;;;5.30;79.85;97721.91;5079303;28;20606;-74
2023/12/21 01:10:30;;;;;;;0.60;0.60;;;;;;;5.24;80.01;97728.81;5080932;28;20266;-74
2023/12/21 01:12:56;;;;;;;0.80;0.60;;;;;;;5.32;79.88;97714.50;5081393;28;20641;-74
2023/12/21 01:15:23;;;;;;;0.60;0.60;;;;;;;5.33;80.04;97706.28;5081862;28;20287;-74
2023/12/21 01:17:50;;;;;;;0.60;0.60;;;;;;;5.24;79.61;97677.00;5080059;28;20760;-74
2023/12/21 01:20:17;;;;;;;0.90;0.70;;;;;;;5.28;80.10;97708.66;5079663;28;20223;-74
2023/12/21 01:22:44;;;;;;;0.60;0.50;;;;;;;5.23;80.56;97678.84;5082263;28;20212;-74
2023/12/21 01:25:10;;;;;;;2.15;0.80;;;;;;;5.22;80.57;97671.81;5080664;28;20612;-73
2023/12/21 01:27:38;;;;;;;0.70;0.50;;;;;;;5.24;80.51;97685.88;5081818;28;20295;-74
2023/12/21 01:30:06;;;;;;;0.50;0.50;;;;;;;5.28;80.31;97681.84;5079204;28;20202;-73
2023/12/21 01:32:32;;;;;;;1.73;0.60;;;;;;;5.27;80.05;97709.69;5080918;28;20299;-73
2023/12/21 01:34:59;;;;;;;0.77;0.60;;;;;;;5.33;80.09;97673.25;5095112;28;20291;-74
2023/12/21 01:37:25;;;;;;;0.60;0.60;;;;;;;5.33;80.03;97684.81;5073589;28;20275;-74
2023/12/21 01:39:52;;;;;;;0.60;0.60;;;;;;;5.36;79.81;97673.75;5079810;28;20635;-73
2023/12/21 01:42:19;;;;;;;0.60;0.50;;;;;;;5.39;79.49;97662.66;5080936;28;20240;-74
2023/12/21 01:44:47;;;;;;;0.70;0.60;;;;;;;5.53;79.25;97668.25;5116444;27;20619;-74
2023/12/21 01:47:13;;;;;;;0.80;0.50;;;;;;;5.39;79.36;97662.66;5080445;28;20196;-73
2023/12/21 01:49:41;;;;;;;0.55;0.50;;;;;;;5.33;79.31;97668.72;5080133;28;20234;-73
2023/12/21 01:52:08;;;;;;;0.77;0.55;;;;;;;5.43;79.02;97643.50;5079637;28;20732;-73
2023/12/21 01:54:35;;;;;;;2.05;0.82;;;;;;;5.39;79.07;97649.25;5081160;28;20236;-74
2023/12/21 01:57:02;;;;;;;1.48;0.90;;;;;;;5.41;79.05;97622.22;5080365;28;20295;-74
2023/12/21 01:59:29;;;;;;;0.60;0.60;;;;;;;5.35;78.95;97618.41;5113523;27;20299;-74
2023/12/21 02:01:58;;;;;;;0.50;0.50;;;;;;;5.49;78.23;97622.16;5079238;28;20288;-74
2023/12/21 02:04:24;;;;;;;0.60;0.50;;;;;;;5.46;78.36;97611.78;5113642;27;20724;-74
2023/12/21 02:06:51;;;;;;;1.15;0.50;;;;;;;5.53;77.91;97625.31;5080442;28;20278;-73
2023/12/21 02:09:18;;;;;;;0.82;0.60;;;;;;;5.57;78.12;97637.34;5097447;28;20207;-73
2023/12/21 02:11:46;;;;;;;0.73;0.50;;;;;;;5.58;77.50;97617.53;5076878;28;20279;-73
2023/12/21 02:14:14;;;;;;;0.50;0.47;;;;;;;5.55;77.90;97615.22;5079512;28;20208;-73
2023/12/21 02:16:44;;;;;;;0.47;0.47;;;;;;;5.57;77.84;97599.78;5079888;28;20300;-73
2023/12/21 02:19:13;;;;;;;0.50;0.40;;;;;;;5.61;77.65;97598.41;5113309;27;20291;-73
2023/12/21 02:21:41;;;;;;;0.50;0.40;;;;;;;5.59;77.38;97589.69;5079067;28;20279;-73
2023/12/21 02:24:13;;;;;;;0.60;0.55;;;;;;;5.62;77.35;97600.91;5078859;28;20200;-73
2023/12/21 02:26:40;;;;;;;0.50;0.50;;;;;;;5.61;77.49;97591.19;5076734;28;20688;-73
2023/12/21 02:29:07;;;;;;;0.50;0.40;;;;;;;5.63;77.37;97594.50;5077240;28;20303;-73
2023/12/21 02:31:33;;;;;;;0.60;0.50;;;;;;;5.60;77.63;97575.25;5079943;28;21106;-73
2023/12/21 02:34:00;;;;;;;0.60;0.50;;;;;;;5.57;77.74;97560.34;5078716;28;20294;-73
2023/12/21 02:36:27;;;;;;;0.50;0.40;;;;;;;5.61;77.84;97575.06;5080664;28;20290;-73
2023/12/21 02:38:54;;;;;;;0.60;0.50;;;;;;;5.59;77.73;97565.53;5080493;28;20204;-73
2023/12/21 02:41:21;;;;;;;0.60;0.50;;;;;;;5.65;77.68;97580.91;5078056;28;20204;-73
2023/12/21 02:43:48;;;;;;;0.80;0.50;;;;;;;5.61;77.47;97567.03;5077577;28;20399;-73
2023/12/21 02:46:15;;;;;;;1.75;0.50;;;;;;;5.58;77.84;97564.69;5115291;27;20291;-73
2023/12/21 02:48:41;;;;;;;1.20;0.50;;;;;;;5.59;77.88;97565.53;5077014;28;20283;-73
2023/12/21 02:51:08;;;;;;;0.60;0.43;;;;;;;5.46;78.04;97554.59;5077385;28;20291;-73
2023/12/21 02:53:34;;;;;;;0.52;0.40;;;;;;;5.57;78.14;97548.78;5079921;28;20224;-74
2023/12/21 02:56:01;;;;;;;0.50;0.47;;;;;;;5.62;77.66;97538.31;5080471;28;20287;-73
2023/12/21 02:58:29;;;;;;;0.70;0.40;;;;;;;5.62;78.10;97535.66;5078219;28;20231;-74
2023/12/21 03:00:58;;;;;;;0.57;0.50;;;;;;;5.63;78.03;97531.94;5079439;28;20326;-72
2023/12/21 03:03:24;;;;;;;0.50;0.50;;;;;;;5.63;78.01;97508.63;5077774;28;20222;-72
2023/12/21 03:05:51;;;;;;;0.40;0.40;;;;;;;5.65;77.81;97495.00;5079826;28;20291;-72
2023/12/21 03:08:17;;;;;;;0.50;0.50;;;;;;;5.58;78.13;97486.03;5113867;27;20207;-73
2023/12/21 03:10:44;;;;;;;0.50;0.40;;;;;;;5.69;77.73;97474.84;5077109;28;20288;-73
2023/12/21 03:13:10;;;;;;;0.60;0.57;;;;;;;5.67;77.56;97484.94;5079193;28;20287;-72
2023/12/21 03:15:38;;;;;;;0.60;0.57;;;;;;;5.69;77.54;97490.94;5079876;28;20299;-71
2023/12/21 03:18:05;;;;;;;0.75;0.50;;;;;;;5.77;77.27;97485.50;5112525;27;20308;-73
2023/12/21 03:20:32;;;;;;;0.60;0.45;;;;;;;5.77;76.94;97488.19;5080641;28;20207;-73
2023/12/21 03:22:59;;;;;;;0.45;0.40;;;;;;;5.79;77.24;97479.94;5082515;28;20242;-74
2023/12/21 03:25:26;;;;;;;0.95;0.50;;;;;;;5.80;77.56;97481.59;5082838;28;20223;-74
2023/12/21 03:27:52;;;;;;;0.60;0.50;;;;;;;5.77;77.80;97493.53;5081924;28;20239;-74
2023/12/21 03:30:19;;;;;;;0.50;0.40;;;;;;;5.76;78.10;97464.19;5083466;28;20239;-74
2023/12/21 03:32:47;;;;;;;0.50;0.40;;;;;;;5.78;78.42;97480.97;5083025;28;20530;-74
2023/12/21 03:35:15;;;;;;;0.50;0.40;;;;;;;5.67;78.75;97482.25;5080852;28;20242;-74
2023/12/21 03:37:41;;;;;;;0.50;0.40;;;;;;;5.64;78.94;97471.88;5084193;28;20231;-74
2023/12/21 03:40:08;;;;;;;0.60;0.40;;;;;;;5.72;78.36;97475.31;5082433;28;20323;-74
2023/12/21 03:42:35;;;;;;;0.55;0.40;;;;;;;5.77;78.36;97461.31;5081616;28;20726;-74
2023/12/21 03:45:02;;;;;;;0.45;0.40;;;;;;;5.74;78.24;97449.09;5083550;28;20272;-74
2023/12/21 03:47:29;;;;;;;0.73;0.40;;;;;;;5.80;78.68;97474.38;5081125;28;20206;-74
2023/12/21 03:49:57;;;;;;;0.50;0.50;;;;;;;5.60;79.09;97454.47;5115685;27;20728;-74
2023/12/21 03:52:23;;;;;;;0.50;0.40;;;;;;;5.70;79.10;97471.13;5084957;28;20313;-74
2023/12/21 03:54:50;;;;;;;0.50;0.40;;;;;;;5.72;78.87;97480.69;5082830;28;20235;-74
2023/12/21 03:57:16;;;;;;;0.50;0.40;;;;;;;5.74;78.91;97467.06;5091971;28;20258;-74
2023/12/21 03:59:45;;;;;;;0.50;0.40;;;;;;;5.68;79.39;97451.69;5080828;28;20212;-74
2023/12/21 04:02:11;;;;;;;0.50;0.50;;;;;;;5.69;79.99;97448.00;5082493;28;20624;-74
2023/12/21 04:04:38;;;;;;;0.57;0.40;;;;;;;5.70;80.04;97438.94;5082168;28;20721;-75
2023/12/21 04:07:06;;;;;;;0.60;0.50;;;;;;;5.61;80.94;97448.91;5083191;28;20227;-73
2023/12/21 04:09:32;;;;;;;0.50;0.40;;;;;;;5.56;80.91;97454.00;5082023;28;20214;-73
2023/12/21 04:11:59;;;;;;;0.50;0.40;;;;;;;5.56;81.62;97439.75;5114736;27;20287;-74
2023/12/21 04:14:25;;;;;;;0.40;0.40;;;;;;;5.60;81.11;97428.47;5080550;28;20670;-74
2023/12/21 04:16:52;;;;;;;0.60;0.50;;;;;;;5.56;81.35;97420.97;5082781;28;20238;-74
2023/12/21 04:19:19;;;;;;;1.00;0.40;;;;;;;5.59;81.06;97447.44;5081966;28;20204;-74
2023/12/21 04:21:47;;;;;;;0.50;0.40;;;;;;;5.61;80.94;97435.50;5082718;28;20208;-73
2023/12/21 04:24:16;;;;;;;0.50;0.40;;;;;;;5.59;81.48;97431.31;5082200;28;20298;-73
2023/12/21 04:26:42;;;;;;;0.50;0.40;;;;;;;5.64;81.14;97410.97;5091141;28;20234;-73
2023/12/21 04:29:10;;;;;;;0.80;0.50;;;;;;;5.64;81.91;97427.06;5081265;28;20286;-74
2023/12/21 04:31:41;;;;;;;1.08;0.40;;;;;;;5.52;83.05;97428.59;5083953;28;20243;-73
2023/12/21 04:34:08;;;;;;;0.55;0.40;;;;;;;5.40;84.02;97406.72;5082240;28;20203;-73
2023/12/21 04:36:35;;;;;;;0.50;0.47;;;;;;;5.41;84.45;97412.94;5065646;28;20258;-73
2023/12/21 04:39:01;;;;;;;0.50;0.40;;;;;;;5.44;84.09;97406.38;5081636;28;20644;-73
2023/12/21 04:41:29;;;;;;;0.60;0.50;;;;;;;5.48;84.42;97411.19;5080958;28;20203;-73
2023/12/21 04:43:56;;;;;;;0.60;0.50;;;;;;;5.46;84.89;97405.16;5115680;27;20282;-73
2023/12/21 04:46:23;;;;;;;0.60;0.50;;;;;;;5.42;84.94;97429.88;5080415;28;20645;-73
2023/12/21 04:48:49;;;;;;;0.77;0.52;;;;;;;5.39;85.10;97388.97;5082295;28;20266;-73
2023/12/21 04:51:16;;;;;;;0.60;0.50;;;;;;;5.17;84.93;97367.63;5082423;28;20279;-72
2023/12/21 04:53:43;;;;;;;0.77;0.40;;;;;;;5.44;85.20;97407.19;5080797;28;20570;-72
2023/12/21 04:56:09;;;;;;;0.80;0.50;;;;;;;5.51;85.18;97408.13;5081307;28;20241;-72
2023/12/21 04:58:38;;;;;;;0.50;0.50;;;;;;;5.51;84.40;97404.63;5072214;28;20220;-73
2023/12/21 05:01:06;;;;;;;0.40;0.40;;;;;;;5.56;84.13;97384.22;5079013;28;20201;-72
2023/12/21 05:03:32;;;;;;;0.50;0.40;;;;;;;5.63;83.80;97365.53;5089902;28;20292;-73
2023/12/21 05:05:59;;;;;;;1.30;0.50;;;;;;;5.38;83.86;97333.66;5082467;28;20250;-72
2023/12/21 05:08:26;;;;;;;0.50;0.40;;;;;;;5.68;83.42;97360.44;5080067;28;20665;-73
2023/12/21 05:10:52;;;;;;;0.93;0.60;;;;;;;5.70;83.49;97379.88;5082452;28;20209;-74
2023/12/21 05:13:19;;;;;;;0.65;0.50;;;;;;;5.53;83.09;97357.75;5080496;28;20827;-73
2023/12/21 05:15:47;;;;;;;0.60;0.55;;;;;;;5.70;83.53;97371.81;5088748;28;20212;-73
2023/12/21 05:18:14;;;;;;;0.60;0.50;;;;;;;5.68;84.11;97381.91;5079279;28;20734;-74
2023/12/21 05:20:40;;;;;;;0.60;0.50;;;;;;;5.72;83.24;97369.78;5079129;28;20741;-74
2023/12/21 05:23:07;;;;;;;0.50;0.40;;;;;;;5.51;82.94;97343.72;5115144;27;20734;-73
2023/12/21 05:25:33;;;;;;;0.60;0.50;;;;;;;5.76;83.27;97368.38;5076276;28;20219;-73
2023/12/21 05:28:00;;;;;;;0.70;0.47;;;;;;;5.75;83.36;97366.72;5080042;28;20235;-74
2023/12/21 05:30:29;;;;;;;0.50;0.50;;;;;;;5.79;83.10;97361.81;5082210;28;20295;-73
2023/12/21 05:32:57;;;;;;;0.50;0.50;;;;;;;5.77;83.45;97351.25;5114229;27;20609;-73
2023/12/21 05:35:24;;;;;;;0.65;0.50;;;;;;;5.75;83.44;97342.56;5112162;27;20236;-72
2023/12/21 05:37:51;;;;;;;0.77;0.40;;;;;;;5.57;83.00;97285.75;5112756;27;20220;-73
2023/12/21 05:40:19;;;;;;;0.50;0.47;;;;;;;5.85;83.19;97335.00;5079470;28;20619;-74
2023/12/21 05:42:46;;;;;;;0.40;0.40;;;;;;;5.90;83.06;97338.00;5080237;28;20617;-73
2023/12/21 05:45:12;;;;;;;0.93;0.60;;;;;;;5.96;82.39;97326.50;5082915;28;20683;-73
2023/12/21 05:47:40;;;;;;;1.40;0.52;;;;;;;6.03;82.22;97331.94;5080838;28;20262;-72
2023/12/21 05:50:09;;;;;;;0.50;0.47;;;;;;;5.98;82.12;97337.88;5081665;28;20680;-73
2023/12/21 05:52:36;;;;;;;0.90;0.50;;;;;;;6.00;82.00;97338.53;5080285;28;20205;-73
2023/12/21 05:55:04;;;;;;;0.50;0.47;;;;;;;6.00;81.69;97322.41;5080357;28;20211;-73
2023/12/21 05:57:30;;;;;;;0.50;0.50;;;;;;;6.03;82.05;97313.97;5088832;28;20870;-73
2023/12/21 05:59:57;;;;;;;0.80;0.50;;;;;;;6.04;82.18;97299.53;5079159;28;20208;-74
2023/12/21 06:02:23;;;;;;;0.50;0.40;;;;;;;6.07;81.92;97303.69;5081329;28;20664;-72
2023/12/21 06:04:50;;;;;;;0.50;0.40;;;;;;;6.05;81.98;97311.09;5082082;28;20291;-73
2023/12/21 06:07:19;;;;;;;0.50;0.50;;;;;;;6.02;81.96;97285.44;5080162;28;20210;-76
2023/12/21 06:09:45;;;;;;;0.93;0.50;;;;;;;6.02;82.25;97301.56;5075561;28;20205;-72
2023/12/21 06:12:12;;;;;;;0.50;0.50;;;;;;;6.06;82.32;97310.91;5079395;28;20319;-73
2023/12/21 06:14:39;;;;;;;0.50;0.50;;;;;;;6.02;82.60;97304.25;5076917;28;20211;-74
2023/12/21 06:17:06;;;;;;;0.52;0.50;;;;;;;6.07;82.50;97284.88;5077471;28;20208;-74
2023/12/21 06:19:32;;;;;;;0.50;0.40;;;;;;;6.08;82.89;97259.69;5079628;28;20255;-80
2023/12/21 06:21:59;;;;;;;0.50;0.43;;;;;;;6.42;81.42;97268.84;5078765;28;20623;-76
2023/12/21 06:24:27;;;;;;;0.60;0.50;;;;;;;6.34;81.35;97269.81;5079114;28;20208;-73
2023/12/21 06:26:54;;;;;;;0.50;0.40;;;;;;;6.24;81.58;97263.94;5077372;28;20303;-74
2023/12/21 06:29:20;;;;;;;0.50;0.50;;;;;;;6.17;81.96;97249.63;5080261;28;20287;-74
2023/12/21 06:31:48;;;;;;;0.50;0.50;;;;;;;6.18;82.33;97244.03;5080770;28;20543;-74
2023/12/21 06:34:14;;;;;;;0.52;0.40;;;;;;;6.20;82.08;97225.03;5078477;28;20204;-74
2023/12/21 06:36:41;;;;;;;0.50;0.40;;;;;;;6.25;81.95;97233.34;5081441;28;20283;-74
2023/12/21 06:39:08;;;;;;;0.70;0.60;;;;;;;6.19;82.45;97234.13;5078178;28;20234;-73
2023/12/21 06:41:36;;;;;;;0.50;0.50;;;;;;;6.23;82.29;97225.50;5079099;28;20203;-74
2023/12/21 06:44:02;;;;;;;2.15;0.52;;;;;;;6.28;81.94;97227.59;5077445;28;20315;-73
2023/12/21 06:46:29;;;;;;;0.50;0.50;;;;;;;6.25;82.02;97236.03;5079424;28;20288;-74
2023/12/21 06:48:56;;;;;;;0.73;0.55;;;;;;;6.30;81.88;97242.50;5079859;28;20208;-75
2023/12/21 06:51:23;;;;;;;1.70;0.60;;;;;;;6.34;81.86;97233.03;5079942;28;20237;-74
2023/12/21 06:53:50;;;;;;;0.50;0.50;;;;;;;6.38;81.65;97233.47;5079319;28;20200;-74
2023/12/21 06:56:17;;;;;;;0.50;0.50;;;;;;;6.40;81.63;97231.41;5078453;28;20208;-74
2023/12/21 06:58:45;;;;;;;0.60;0.50;;;;;;;6.38;81.62;97242.34;5077010;28;20232;-73
2023/12/21 07:01:12;;;;;;;0.50;0.47;;;;;;;6.36;81.68;97222.06;5113820;28;20315;-73
2023/12/21 07:03:39;;;;;;;0.50;0.47;;;;;;;6.47;81.62;97224.25;5079162;28;20192;-74
2023/12/21 07:06:09;;;;;;;0.60;0.60;;;;;;;6.36;82.04;97224.78;5086848;28;20242;-74
2023/12/21 07:08:38;;;;;;;0.70;0.40;;;;;;;6.41;82.18;97216.94;5074394;28;20224;-77
2023/12/21 07:11:05;;;;;;;0.70;0.50;;;;;;;6.41;82.21;97216.94;5079726;28;20661;-73
2023/12/21 07:13:32;;;;;;;0.80;0.50;;;;;;;6.43;81.90;97214.91;5076525;28;20228;-73
2023/12/21 07:16:00;;;;;;;0.70;0.50;;;;;;;6.38;82.16;97215.47;5077387;28;20238;-75
2023/12/21 07:18:26;;;;;;;0.50;0.50;;;;;;;6.41;82.18;97195.44;5078087;28;20223;-75
2023/12/21 07:20:53;;;;;;;0.60;0.50;;;;;;;6.47;82.03;97221.53;5079829;28;20246;-75
2023/12/21 07:23:19;;;;;;;0.50;0.50;;;;;;;6.49;81.96;97198.00;5077534;28;20208;-75
2023/12/21 07:25:46;;;;;;;0.90;0.60;;;;;;;6.50;82.25;97210.38;5072530;28;20227;-75
2023/12/21 07:28:15;;;;;;;0.50;0.40;;;;;;;6.52;82.09;97202.13;5076827;28;20376;-75
2023/12/21 07:30:41;;;;;;;0.40;0.40;;;;;;;6.50;82.17;97188.88;5076622;28;20257;-75
2023/12/21 07:33:10;;;;;;;0.60;0.50;;;;;;;6.49;82.26;97181.88;5078173;28;20291;-75
2023/12/21 07:35:36;;;;;;;0.50;0.50;;;;;;;6.51;82.39;97187.84;5089819;28;20219;-75
2023/12/21 07:38:03;;;;;;;0.50;0.50;;;;;;;6.51;82.84;97176.25;5079798;28;20227;-72
2023/12/21 07:40:30;;;;;;;1.00;0.60;;;;;;;6.63;82.11;97170.16;5070872;28;20211;-78
2023/12/21 07:42:57;;;;;;;1.05;0.50;;;;;;;6.63;82.53;97172.84;5068270;28;20208;-78
2023/12/21 07:45:23;;;;;;;0.50;0.50;;;;;;;6.65;82.49;97165.41;5078496;28;20284;-77
2023/12/21 07:47:50;;;;;;;0.60;0.55;;;;;;;6.66;82.26;97161.69;5073653;28;20306;-78
2023/12/21 07:50:18;;;;;;;1.45;0.50;;;;;;;6.60;82.91;97162.47;5079541;28;20199;-74
2023/12/21 07:52:44;;;;;;;0.70;0.50;;;;;;;6.57;83.17;97181.69;5106524;28;20299;-76
2023/12/21 07:55:11;;;;;;;0.50;0.50;;;;;;;6.58;83.03;97161.00;5072478;28;20275;-76
2023/12/21 07:57:37;;;;;;;0.60;0.50;;;;;;;6.62;83.17;97148.84;5076292;28;20719;-75
2023/12/21 08:00:06;;;;;;;0.50;0.40;;;;;;;6.58;83.41;97139.50;5073965;28;20302;-75
2023/12/21 08:02:32;;;;;;;0.73;0.60;;;;;;;6.63;83.43;97159.38;5075083;28;20200;-76
2023/12/21 08:04:59;;;;;;;0.70;0.50;;;;;;;6.68;83.17;97154.25;5077262;28;20283;-75
2023/12/21 08:07:27;;;;;;;0.50;0.50;;;;;;;6.72;83.41;97149.31;5073692;28;20200;-76
2023/12/21 08:09:54;;;;;;;1.88;0.70;;;;;;;6.71;83.44;97159.22;5078377;28;20189;-76
2023/12/21 08:12:20;;;;;;;0.82;0.60;;;;;;;6.73;83.27;97153.66;5081948;28;20652;-75
2023/12/21 08:14:47;;;;;;;0.50;0.40;;;;;;;6.77;83.15;97143.34;5081499;28;20298;-75
2023/12/21 08:17:13;;;;;;;0.50;0.43;;;;;;;6.77;83.27;97146.84;5074388;28;20283;-75
2023/12/21 08:19:40;;;;;;;0.70;0.70;;;;;;;6.66;82.97;97107.91;5079069;28;20313;-75
2023/12/21 08:22:07;;;;;;;0.52;0.50;;;;;;;6.80;83.32;97151.84;5079122;28;20222;-75
2023/12/21 08:24:35;;;;;;;0.80;0.50;;;;;;;6.82;83.20;97139.03;5074783;28;20346;-74
2023/12/21 08:27:02;;;;;;;0.60;0.60;;;;;;;6.83;83.09;97132.59;5079867;28;20231;-74
2023/12/21 08:29:30;;;;;;;0.40;0.40;;;;;;;6.85;82.89;97132.38;5083064;28;20232;-74
2023/12/21 08:31:56;;;;;;;0.70;0.47;;;;;;;6.94;82.32;97131.19;5113447;27;20211;-74
2023/12/21 08:34:23;;;;;;;0.70;0.60;;;;;;;6.87;82.89;97128.47;5083048;28;20286;-74
2023/12/21 08:36:50;;;;;;;0.70;0.50;;;;;;;6.99;82.44;97123.34;5081457;28;20287;-74
2023/12/21 08:39:17;;;;;;;0.60;0.50;;;;;;;7.04;82.39;97120.88;5079688;28;20228;-74
2023/12/21 08:41:45;;;;;;;0.50;0.40;;;;;;;7.07;81.99;97139.31;5078679;28;20355;-75
2023/12/21 08:44:11;;;;;;;0.50;0.50;;;;;;;7.05;82.27;97126.06;5078959;28;20253;-74
2023/12/21 08:46:42;;;;;;;0.50;0.50;;;;;;;7.08;82.00;97125.66;5079699;28;20291;-73
2023/12/21 08:49:08;;;;;;;0.68;0.50;;;;;;;7.00;82.27;97130.38;5078896;28;20287;-73
2023/12/21 08:51:37;;;;;;;0.50;0.50;;;;;;;7.08;82.32;97132.91;5077339;28;20290;-73
2023/12/21 08:54:04;;;;;;;0.50;0.45;;;;;;;7.11;82.00;97120.91;5079739;28;20243;-73
2023/12/21 08:56:32;;;;;;;0.50;0.40;;;;;;;7.15;81.64;97125.66;5079613;28;20200;-73
2023/12/21 08:59:01;;;;;;;0.50;0.50;;;;;;;7.12;82.07;97122.56;5078957;28;20559;-73
2023/12/21 09:01:30;;;;;;;0.50;0.40;;;;;;;7.16;81.59;97127.31;5079493;28;20605;-73
2023/12/21 09:03:57;;;;;;;0.70;0.50;;;;;;;7.11;81.97;97105.59;5074864;28;20245;-73
2023/12/21 09:06:23;;;;;;;0.50;0.50;;;;;;;7.11;81.97;97089.44;5077200;28;20654;-73
2023/12/21 09:08:50;;;;;;;0.50;0.45;;;;;;;7.12;81.95;97107.25;5077598;28;20192;-73
2023/12/21 09:11:17;;;;;;;0.50;0.43;;;;;;;7.21;81.80;97089.84;5076381;28;20664;-73
2023/12/21 09:13:43;;;;;;;0.50;0.40;;;;;;;7.19;82.27;97083.84;5077933;28;20561;-73
2023/12/21 09:16:14;;;;;;;1.00;0.60;;;;;;;7.23;82.12;97077.03;5079606;28;20228;-73
2023/12/21 09:18:43;;;;;;;0.60;0.50;;;;;;;7.12;82.02;97060.69;5078435;28;20270;-73
2023/12/21 09:21:11;;;;;;;0.60;0.50;;;;;;;7.16;82.28;97054.66;5077939;28;20223;-74
2023/12/21 09:23:37;;;;;;;0.40;0.40;;;;;;;7.13;81.89;97043.50;5077843;28;20215;-74
2023/12/21 09:26:04;;;;;;;0.80;0.50;;;;;;;6.89;82.24;97005.38;5076822;28;20230;-74
2023/12/21 09:28:31;;;;;;;0.70;0.50;;;;;;;7.14;82.36;97035.22;5077382;28;20287;-77
2023/12/21 09:31:00;;;;;;;0.50;0.50;;;;;;;7.18;82.10;97041.84;5076177;28;20208;-77
2023/12/21 09:33:39;;;;;;;0.68;0.50;;;;;;;7.25;81.91;97036.47;5080158;28;20215;-77
2023/12/21 09:36:09;;;;;;;0.50;0.40;;;;;;;7.32;81.68;97058.84;5079053;28;20687;-78
2023/12/21 09:38:48;;;;;;;0.50;0.40;;;;;;;7.35;81.00;97048.47;5079727;28;20208;-80
2023/12/21 09:41:14;;;;;;;0.63;0.50;;;;;;;7.39;80.97;97032.75;5079753;28;20200;-79
2023/12/21 09:43:42;;;;;;;0.80;0.43;;;;;;;7.40;81.05;97029.84;5077824;28;20291;-78
2023/12/21 09:46:09;;;;;;;1.55;0.50;;;;;;;7.40;80.90;97019.09;5076560;28;20215;-75
2023/12/21 09:48:38;;;;;;;0.50;0.50;;;;;;;7.43;80.82;96998.19;5073750;28;20295;-74
2023/12/21 09:51:05;;;;;;;0.63;0.50;;;;;;;7.44;80.69;97008.75;5077057;28;20200;-72
2023/12/21 09:53:34;;;;;;;0.80;0.50;;;;;;;7.52;80.29;96999.59;5076002;28;20374;-74
2023/12/21 09:56:01;;;;;;;0.75;0.50;;;;;;;7.54;80.37;96984.06;5071469;28;20224;-74
2023/12/21 09:58:28;;;;;;;0.60;0.40;;;;;;;7.63;79.60;96972.06;5076007;28;20207;-74
2023/12/21 10:00:55;;;;;;;0.60;0.40;;;;;;;7.62;79.49;96991.94;5076706;28;20294;-75
2023/12/21 10:03:22;;;;;;;0.80;0.60;;;;;;;7.68;79.29;97005.41;5085593;28;20208;-75
2023/12/21 10:06:03;;;;;;;0.80;0.50;;;;;;;7.70;79.14;96997.94;5074240;28;20211;-78
2023/12/21 10:08:33;;;;;;;0.60;0.45;;;;;;;7.81;79.06;97001.84;5077310;28;20204;-74
2023/12/21 10:10:59;;;;;;;0.50;0.50;;;;;;;7.82;78.76;97000.78;5073854;28;20200;-74
2023/12/21 10:13:26;;;;;;;1.20;0.60;;;;;;;7.78;79.08;96971.81;5074309;28;20295;-72
2023/12/21 10:15:58;;;;;;;0.60;0.40;;;;;;;7.80;78.89;96961.69;5075069;28;20283;-72
2023/12/21 10:18:26;;;;;;;0.50;0.50;;;;;;;7.82;79.24;96963.09;5108754;27;20223;-72
2023/12/21 10:20:53;;;;;;;0.60;0.47;;;;;;;7.84;78.96;96931.38;5074495;28;20224;-72
2023/12/21 10:23:22;;;;;;;0.55;0.40;;;;;;;7.85;79.20;96914.19;5074942;28;20215;-74
2023/12/21 10:25:49;;;;;;;0.55;0.50;;;;;;;7.86;79.47;96915.00;5076200;28;20295;-74
2023/12/21 10:28:17;;;;;;;0.50;0.40;;;;;;;7.90;79.32;96911.69;5074800;28;20209;-73
2023/12/21 10:30:43;;;;;;;1.17;0.50;;;;;;;7.92;79.51;96906.09;5070772;28;20719;-73
2023/12/21 10:33:12;;;;;;;0.60;0.50;;;;;;;7.92;79.47;96874.59;5073915;28;20260;-74
2023/12/21 10:35:38;;;;;;;0.98;0.50;;;;;;;7.93;79.91;96878.09;5077510;28;20677;-75
2023/12/21 10:38:05;;;;;;;1.38;0.43;;;;;;;7.98;79.63;96883.69;5073819;28;20258;-76
2023/12/21 10:40:33;;;;;;;0.60;0.50;;;;;;;7.96;79.83;96867.72;5108141;27;20222;-73
2023/12/21 10:43:00;;;;;;;0.80;0.45;;;;;;;7.92;80.12;96865.69;5073095;28;20296;-75
2023/12/21 10:45:26;;;;;;;0.95;0.40;;;;;;;7.99;79.72;96845.75;5077449;28;20754;-74
2023/12/21 10:47:53;;;;;;;0.73;0.50;;;;;;;7.99;79.86;96824.19;5070692;28;20323;-76
2023/12/21 10:50:21;;;;;;;0.60;0.50;;;;;;;8.05;79.76;96812.56;5075368;28;20320;-74
2023/12/21 10:52:48;;;;;;;0.50;0.50;;;;;;;8.04;79.49;96816.31;5092695;28;20240;-74
2023/12/21 10:55:16;;;;;;;0.70;0.50;;;;;;;8.05;79.39;96822.50;5078458;28;20232;-74
2023/12/21 10:57:45;;;;;;;0.50;0.40;;;;;;;7.88;79.32;96783.63;5075451;28;20287;-74
2023/12/21 11:00:15;;;;;;;0.70;0.60;;;;;;;8.14;79.05;96796.13;5104960;27;20219;-75
2023/12/21 11:02:44;;;;;;;0.50;0.50;;;;;;;8.12;79.07;96790.97;5073494;28;20212;-72
2023/12/21 11:05:15;;;;;;;0.50;0.40;;;;;;;8.11;78.78;96794.72;5073940;28;20198;-72
2023/12/21 11:07:41;;;;;;;1.08;0.40;;;;;;;8.12;79.04;96784.75;5075961;28;20308;-71
2023/12/21 11:10:09;;;;;;;0.60;0.50;;;;;;;8.21;78.43;96769.94;5073022;28;20252;-72
2023/12/21 11:12:36;;;;;;;0.55;0.50;;;;;;;8.14;78.93;96755.69;5066346;28;20284;-71
2023/12/21 11:15:05;;;;;;;0.52;0.40;;;;;;;8.17;78.60;96747.19;5072387;28;20208;-69
2023/12/21 11:17:32;;;;;;;0.60;0.50;;;;;;;8.20;78.50;96734.09;5074398;28;20291;-71
2023/12/21 11:19:58;;;;;;;0.50;0.43;;;;;;;8.25;78.60;96733.44;5072261;28;20286;-71
2023/12/21 11:22:25;;;;;;;0.50;0.40;;;;;;;8.27;77.92;96723.28;5070298;28;20547;-71
2023/12/21 11:25:00;;;;;;;0.50;0.50;;;;;;;8.30;77.73;96739.00;5074666;28;20727;-71
2023/12/21 11:27:27;;;;;;;0.50;0.40;;;;;;;8.31;77.89;96727.19;5075095;28;20303;-72
2023/12/21 11:29:55;;;;;;;1.80;0.40;;;;;;;8.41;77.19;96722.16;5069435;28;20283;-72
2023/12/21 11:32:26;;;;;;;0.50;0.40;;;;;;;8.36;77.76;96713.91;5073210;28;20208;-71
2023/12/21 11:34:52;;;;;;;0.50;0.50;;;;;;;8.41;77.19;96679.84;5073342;28;20637;-71
2023/12/21 11:37:22;;;;;;;0.50;0.50;;;;;;;8.41;77.29;96697.88;5075990;28;20200;-71
2023/12/21 11:39:51;;;;;;;0.50;0.50;;;;;;;8.43;77.45;96706.59;5070138;28;20323;-73
2023/12/21 11:42:20;;;;;;;0.60;0.50;;;;;;;8.50;77.11;96679.53;5074058;28;20812;-73